createdAt,value
2022-10-10T00:00:57.595Z,4.72
2022-10-10T00:03:02.640Z,4.40
2022-10-10T00:05:09.152Z,4.45
2022-10-10T00:07:14.503Z,4.45
2022-10-10T00:09:19.536Z,4.97
2022-10-10T00:11:28.334Z,5.18
2022-10-10T00:13:33.746Z,4.10
2022-10-10T00:15:38.849Z,4.78
2022-10-10T00:17:45.263Z,4.75
2022-10-10T00:19:50.615Z,4.57
2022-10-10T00:21:56.036Z,5.10
2022-10-10T00:24:01.092Z,4.28
2022-10-10T00:26:08.946Z,4.53
2022-10-10T00:28:17.548Z,4.38
2022-10-10T00:30:23.086Z,4.20
2022-10-10T00:32:29.064Z,4.68
2022-10-10T00:34:34.866Z,4.78
2022-10-10T00:36:40.221Z,4.10
2022-10-10T00:38:45.360Z,4.70
2022-10-10T00:40:54.677Z,4.22
2022-10-10T00:42:59.794Z,4.28
2022-10-10T00:45:33.632Z,4.28
2022-10-10T00:47:38.971Z,4.00
2022-10-10T00:49:46.959Z,4.22
2022-10-10T00:51:59.118Z,3.88
2022-10-10T00:54:09.275Z,3.97
2022-10-10T00:56:16.776Z,5.00
2022-10-10T00:58:23.350Z,4.45
2022-10-10T01:00:31.289Z,3.97
2022-10-10T01:04:45.650Z,4.05
2022-10-10T01:06:51.497Z,4.10
2022-10-10T01:08:57.462Z,4.45
2022-10-10T01:11:21.309Z,3.97
2022-10-10T01:13:37.602Z,4.30
2022-10-10T01:15:55.012Z,4.25
2022-10-10T01:18:09.419Z,4.10
2022-10-10T01:21:13.608Z,4.22
2022-10-10T01:24:18.599Z,4.22
2022-10-10T01:27:06.058Z,4.32
2022-10-10T01:29:20.871Z,4.30
2022-10-10T01:31:28.408Z,4.60
2022-10-10T01:33:42.856Z,4.13
2022-10-10T01:35:56.995Z,3.92
2022-10-10T01:38:21.788Z,4.18
2022-10-10T01:40:35.641Z,3.53
2022-10-10T01:42:51.212Z,3.83
2022-10-10T01:44:59.072Z,3.75
2022-10-10T01:49:09.910Z,3.88
2022-10-10T01:51:41.773Z,3.78
2022-10-10T01:53:56.933Z,4.07
2022-10-10T01:56:11.867Z,3.65
2022-10-10T01:59:04.856Z,3.70
2022-10-10T02:01:20.758Z,4.13
2022-10-10T02:03:32.984Z,4.57
2022-10-10T02:05:44.617Z,5.03
2022-10-10T02:07:57.023Z,4.55
2022-10-10T02:10:06.336Z,4.68
2022-10-10T02:12:15.245Z,4.65
2022-10-10T02:14:26.113Z,4.30
2022-10-10T02:16:40.202Z,3.85
2022-10-10T02:18:48.021Z,3.92
2022-10-10T02:20:54.736Z,4.10
2022-10-10T02:23:00.355Z,3.95
2022-10-10T02:25:05.532Z,3.80
2022-10-10T02:27:17.024Z,3.78
2022-10-10T02:29:27.845Z,4.32
2022-10-10T02:31:42.732Z,3.78
2022-10-10T02:33:56.545Z,4.10
2022-10-10T02:36:03.192Z,3.50
2022-10-10T02:38:13.091Z,3.33
2022-10-10T02:40:23.492Z,3.90
2022-10-10T02:42:30.580Z,3.83
2022-10-10T02:44:36.940Z,4.20
2022-10-10T02:46:44.683Z,3.95
2022-10-10T02:48:50.458Z,4.18
2022-10-10T02:50:55.839Z,3.92
2022-10-10T02:53:01.658Z,3.80
2022-10-10T02:55:08.748Z,3.80
2022-10-10T02:57:14.357Z,4.22
2022-10-10T02:59:19.823Z,3.60
2022-10-10T03:01:24.874Z,3.90
2022-10-10T03:03:32.931Z,3.90
2022-10-10T03:05:38.555Z,3.83
2022-10-10T03:07:44.043Z,4.28
2022-10-10T03:09:50.250Z,3.92
2022-10-10T03:11:55.267Z,4.60
2022-10-10T03:14:00.373Z,4.22
2022-10-10T03:16:07.172Z,5.45
2022-10-10T03:18:12.215Z,4.57
2022-10-10T03:20:20.067Z,4.50
2022-10-10T03:22:25.585Z,4.43
2022-10-10T03:24:31.244Z,4.38
2022-10-10T03:26:36.364Z,3.70
2022-10-10T03:28:42.314Z,3.80
2022-10-10T03:30:47.391Z,3.50
2022-10-10T03:32:52.848Z,4.70
2022-10-10T03:34:58.680Z,3.85
2022-10-10T03:37:06.256Z,4.60
2022-10-10T03:41:17.130Z,4.50
2022-10-10T03:43:22.169Z,4.85
2022-10-10T03:45:28.384Z,4.68
2022-10-10T03:47:33.402Z,4.35
2022-10-10T03:49:38.421Z,4.72
2022-10-10T03:51:43.906Z,4.50
2022-10-10T03:53:51.747Z,4.07
2022-10-10T03:55:57.235Z,4.35
2022-10-10T03:58:02.324Z,4.03
2022-10-10T04:00:09.535Z,4.30
2022-10-10T04:02:14.621Z,4.15
2022-10-10T04:04:20.441Z,3.63
2022-10-10T04:06:27.913Z,4.47
2022-10-10T04:08:33.320Z,3.83
2022-10-10T04:10:41.029Z,4.18
2022-10-10T04:12:46.254Z,3.80
2022-10-10T04:14:51.740Z,3.88
2022-10-10T04:16:59.754Z,4.43
2022-10-10T04:19:08.374Z,4.50
2022-10-10T04:21:14.119Z,4.55
2022-10-10T04:23:20.148Z,4.32
2022-10-10T04:25:25.155Z,4.72
2022-10-10T04:27:33.512Z,4.10
2022-10-10T04:31:43.805Z,4.28
2022-10-10T04:33:49.303Z,4.32
2022-10-10T04:35:54.548Z,4.78
2022-10-10T04:37:59.856Z,4.43
2022-10-10T04:40:05.020Z,4.82
2022-10-10T04:42:10.324Z,4.03
2022-10-10T04:44:19.005Z,3.78
2022-10-10T04:46:24.550Z,4.18
2022-10-10T04:48:29.905Z,4.40
2022-10-10T04:50:35.723Z,4.32
2022-10-10T04:52:41.421Z,4.15
2022-10-10T04:54:46.440Z,4.20
2022-10-10T04:56:51.818Z,4.20
2022-10-10T04:58:57.190Z,4.40
2022-10-10T05:01:04.961Z,4.13
2022-10-10T05:03:12.638Z,4.03
2022-10-10T05:05:17.872Z,3.83
2022-10-10T05:07:22.928Z,4.10
2022-10-10T05:09:28.669Z,3.72
2022-10-10T05:11:33.723Z,3.72
2022-10-10T05:13:39.190Z,3.58
2022-10-10T05:15:45.994Z,4.03
2022-10-10T05:17:53.563Z,4.53
2022-10-10T05:19:58.900Z,3.63
2022-10-10T05:22:03.881Z,4.70
2022-10-10T05:24:09.639Z,5.18
2022-10-10T05:26:14.784Z,5.80
2022-10-10T05:28:20.745Z,6.70
2022-10-10T05:30:26.166Z,8.05
2022-10-10T05:32:31.178Z,7.28
2022-10-10T05:34:39.194Z,6.72
2022-10-10T05:38:50.462Z,5.82
2022-10-10T05:40:58.207Z,6.50
2022-10-10T05:43:03.297Z,5.90
2022-10-10T05:45:10.884Z,5.88
2022-10-10T05:47:16.481Z,5.43
2022-10-10T05:49:21.631Z,5.30
2022-10-10T05:51:29.253Z,6.03
2022-10-10T05:55:39.610Z,6.15
2022-10-10T05:57:44.824Z,8.50
2022-10-10T05:59:50.214Z,6.72
2022-10-10T06:01:55.279Z,6.40
2022-10-10T06:04:00.518Z,5.95
2022-10-10T06:06:07.300Z,6.13
2022-10-10T06:08:15.820Z,5.47
2022-10-10T06:10:21.203Z,5.00
2022-10-10T06:12:26.193Z,5.18
2022-10-10T06:14:31.246Z,6.05
2022-10-10T06:16:37.022Z,5.13
2022-10-10T06:18:43.015Z,6.00
2022-10-10T06:20:48.327Z,5.63
2022-10-10T06:22:54.221Z,4.95
2022-10-10T06:25:02.529Z,4.75
2022-10-10T06:27:07.559Z,5.15
2022-10-10T06:29:12.639Z,5.05
2022-10-10T06:31:19.591Z,5.65
2022-10-10T06:33:24.912Z,6.13
2022-10-10T06:35:29.922Z,5.82
2022-10-10T06:37:35.004Z,6.20
2022-10-10T06:39:40.722Z,5.57
2022-10-10T06:41:48.666Z,5.10
2022-10-10T06:43:56.778Z,5.78
2022-10-10T06:46:01.989Z,5.85
2022-10-10T06:48:08.869Z,5.20
2022-10-10T06:50:14.226Z,6.47
2022-10-10T06:52:20.855Z,5.93
2022-10-10T06:54:25.992Z,5.80
2022-10-10T06:56:31.577Z,6.30
2022-10-10T06:58:39.225Z,6.45
2022-10-10T07:00:50.887Z,6.90
2022-10-10T07:02:56.034Z,6.88
2022-10-10T07:05:01.369Z,6.35
2022-10-10T07:07:06.732Z,6.65
2022-10-10T07:09:11.797Z,5.90
2022-10-10T07:11:17.342Z,5.93
2022-10-10T07:13:22.834Z,6.10
2022-10-10T07:15:30.437Z,6.13
2022-10-10T07:17:35.812Z,6.60
2022-10-10T07:19:41.663Z,5.50
2022-10-10T07:21:46.947Z,5.47
2022-10-10T07:23:51.949Z,5.50
2022-10-10T07:26:04.087Z,5.72
2022-10-10T07:28:09.424Z,5.20
2022-10-10T07:30:16.115Z,5.80
2022-10-10T07:32:24.723Z,6.45
2022-10-10T07:34:29.864Z,6.10
2022-10-10T07:36:35.416Z,6.45
2022-10-10T07:38:41.068Z,6.22
2022-10-10T07:40:46.102Z,6.00
2022-10-10T07:42:51.602Z,5.65
2022-10-10T07:44:56.914Z,6.10
2022-10-10T07:47:02.710Z,5.75
2022-10-10T07:49:10.647Z,4.75
2022-10-10T07:51:16.583Z,5.47
2022-10-10T07:53:22.169Z,5.20
2022-10-10T07:55:27.170Z,5.10
2022-10-10T07:57:35.123Z,5.25
2022-10-10T07:59:40.876Z,4.80
2022-10-10T08:01:46.015Z,4.90
2022-10-10T08:03:51.280Z,4.32
2022-10-10T08:05:59.638Z,4.95
2022-10-10T08:10:11.794Z,4.10
2022-10-10T08:12:17.220Z,4.40
2022-10-10T08:14:22.222Z,4.80
2022-10-10T08:16:27.726Z,4.40
2022-10-10T08:18:32.960Z,4.72
2022-10-10T08:20:37.957Z,4.43
2022-10-10T08:22:45.780Z,4.45
2022-10-10T08:24:50.795Z,3.85
2022-10-10T08:26:55.843Z,4.32
2022-10-10T08:29:01.100Z,4.10
2022-10-10T08:31:09.617Z,3.83
2022-10-10T08:33:15.355Z,4.57
2022-10-10T08:35:20.723Z,3.95
2022-10-10T08:37:29.825Z,3.78
2022-10-10T08:39:40.388Z,3.97
2022-10-10T08:41:52.607Z,4.03
2022-10-10T08:44:01.246Z,3.60
2022-10-10T08:46:18.310Z,4.22
2022-10-10T08:48:28.551Z,4.18
2022-10-10T08:50:39.522Z,4.03
2022-10-10T08:52:51.595Z,4.60
2022-10-10T08:55:03.575Z,4.25
2022-10-10T08:57:18.184Z,4.43
2022-10-10T08:59:29.941Z,4.22
2022-10-10T09:02:17.975Z,4.18
2022-10-10T09:04:07.987Z,4.35
2022-10-10T09:06:47.603Z,3.80
2022-10-10T09:09:05.340Z,4.32
2022-10-10T09:11:25.262Z,3.92
2022-10-10T09:13:37.210Z,4.55
2022-10-10T09:15:59.327Z,4.00
2022-10-10T09:18:22.380Z,4.22
2022-10-10T09:20:44.653Z,4.00
2022-10-10T09:22:56.342Z,4.20
2022-10-10T09:25:09.119Z,4.03
2022-10-10T09:27:23.170Z,3.67
2022-10-10T09:29:35.602Z,4.20
2022-10-10T09:31:45.338Z,3.67
2022-10-10T09:33:58.475Z,3.60
2022-10-10T09:36:08.545Z,3.53
2022-10-10T09:38:35.480Z,3.72
2022-10-10T09:40:47.326Z,3.58
2022-10-10T09:42:56.022Z,3.58
2022-10-10T09:45:01.157Z,3.50
2022-10-10T09:47:06.487Z,3.63
2022-10-10T09:49:17.152Z,3.50
2022-10-10T09:51:23.912Z,3.53
2022-10-10T09:53:29.038Z,3.80
2022-10-10T09:55:38.910Z,4.07
2022-10-10T09:57:45.676Z,3.28
2022-10-10T09:59:54.339Z,4.07
2022-10-10T10:02:06.575Z,3.78
2022-10-10T10:04:28.510Z,3.33
2022-10-10T10:06:34.313Z,3.45
2022-10-10T10:08:40.200Z,3.45
2022-10-10T10:10:45.490Z,3.10
2022-10-10T10:12:50.888Z,3.08
2022-10-10T10:15:06.069Z,3.00
2022-10-10T10:17:15.552Z,3.60
2022-10-10T10:19:35.134Z,3.00
2022-10-10T10:21:53.930Z,3.13
2022-10-10T10:24:02.850Z,2.90
2022-10-10T10:26:12.372Z,2.70
2022-10-10T10:28:23.501Z,2.70
2022-10-10T10:30:31.225Z,3.10
2022-10-10T10:32:51.675Z,3.28
2022-10-10T10:35:26.392Z,3.03
2022-10-10T10:37:45.471Z,2.92
2022-10-10T10:40:12.341Z,3.22
2022-10-10T10:42:37.084Z,2.72
2022-10-10T10:44:48.825Z,2.72
2022-10-10T10:47:09.697Z,2.70
2022-10-10T10:49:25.647Z,2.92
2022-10-10T10:52:05.875Z,2.67
2022-10-10T10:54:28.347Z,3.17
2022-10-10T10:56:40.309Z,3.28
2022-10-10T11:01:59.460Z,2.70
2022-10-10T11:05:21.228Z,2.83
2022-10-10T11:07:21.222Z,2.97
2022-10-10T11:09:49.628Z,2.53
2022-10-10T11:12:13.587Z,2.40
2022-10-10T11:14:43.175Z,2.38
2022-10-10T11:16:53.611Z,2.70
2022-10-10T11:19:24.395Z,2.30
2022-10-10T11:21:31.857Z,2.20
2022-10-10T11:23:44.864Z,2.53
2022-10-10T11:25:55.379Z,2.80
2022-10-10T11:28:07.215Z,2.67
2022-10-10T11:30:20.030Z,3.25
2022-10-10T11:32:33.085Z,2.13
2022-10-10T11:34:47.400Z,3.10
2022-10-10T11:36:55.022Z,4.25
2022-10-10T11:41:16.702Z,2.90
2022-10-10T11:43:34.490Z,3.05
2022-10-10T11:45:53.632Z,3.10
2022-10-10T11:48:07.998Z,4.13
2022-10-10T11:50:26.428Z,3.28
2022-10-10T11:52:48.668Z,2.95
2022-10-10T11:55:00.207Z,3.22
2022-10-10T11:57:13.440Z,2.70
2022-10-10T11:59:33.449Z,2.85
2022-10-10T12:01:44.286Z,3.03
2022-10-10T12:03:57.552Z,3.10
2022-10-10T12:06:15.605Z,3.08
2022-10-10T12:08:24.601Z,3.08
2022-10-10T12:10:36.334Z,2.85
2022-10-10T12:12:46.386Z,3.75
2022-10-10T12:14:56.629Z,2.78
2022-10-10T12:17:02.612Z,3.03
2022-10-10T12:21:28.519Z,3.45
2022-10-10T12:23:34.585Z,3.17
2022-10-10T12:25:45.636Z,2.80
2022-10-10T12:28:08.942Z,3.10
2022-10-10T12:30:24.838Z,3.28
2022-10-10T12:32:42.683Z,3.40
2022-10-10T12:35:02.127Z,2.65
2022-10-10T12:37:26.512Z,3.03
2022-10-10T12:39:41.343Z,2.85
2022-10-10T12:41:58.890Z,3.55
2022-10-10T12:44:23.866Z,3.10
2022-10-10T12:46:36.089Z,2.80
2022-10-10T12:48:41.405Z,2.90
2022-10-10T12:50:56.374Z,2.75
2022-10-10T12:53:07.769Z,2.85
2022-10-10T12:55:23.982Z,2.55
2022-10-10T12:57:35.901Z,2.88
2022-10-10T12:59:41.833Z,2.78
2022-10-10T13:01:52.765Z,3.13
2022-10-10T13:03:58.850Z,2.88
2022-10-10T13:06:12.496Z,2.83
2022-10-10T13:08:23.634Z,2.88
2022-10-10T13:10:31.773Z,3.70
2022-10-10T13:12:37.013Z,3.05
2022-10-10T13:14:44.789Z,3.15
2022-10-10T13:16:53.351Z,2.63
2022-10-10T13:19:00.834Z,3.00
2022-10-10T13:21:07.584Z,3.28
2022-10-10T13:23:17.326Z,2.78
2022-10-10T13:25:26.820Z,2.85
2022-10-10T13:27:35.835Z,2.85
2022-10-10T13:29:44.484Z,3.38
2022-10-10T13:31:50.657Z,3.10
2022-10-10T13:34:00.756Z,3.08
2022-10-10T13:36:20.528Z,3.05
2022-10-10T13:38:29.266Z,2.72
2022-10-10T13:40:37.148Z,2.67
2022-10-10T13:42:43.675Z,2.63
2022-10-10T13:44:55.623Z,2.92
2022-10-10T13:47:00.924Z,2.80
2022-10-10T13:49:23.742Z,2.80
2022-10-10T13:51:45.214Z,2.25
2022-10-10T13:53:56.164Z,2.13
2022-10-10T13:56:12.908Z,2.40
2022-10-10T13:58:18.959Z,2.80
2022-10-10T14:00:27.490Z,2.38
2022-10-10T14:02:36.043Z,2.80
2022-10-10T14:04:49.407Z,2.60
2022-10-10T14:07:03.917Z,3.03
2022-10-10T14:09:22.779Z,2.75
2022-10-10T14:11:34.867Z,2.67
2022-10-10T14:13:41.677Z,2.70
2022-10-10T14:15:50.200Z,2.63
2022-10-10T14:17:55.280Z,3.20
2022-10-10T14:20:01.863Z,2.72
2022-10-10T14:22:07.740Z,2.75
2022-10-10T14:24:13.053Z,2.50
2022-10-10T14:26:20.653Z,2.65
2022-10-10T14:28:32.509Z,2.55
2022-10-10T14:30:38.174Z,2.47
2022-10-10T14:32:43.860Z,2.92
2022-10-10T14:34:49.641Z,1.90
2022-10-10T14:36:54.869Z,2.28
2022-10-10T14:39:00.435Z,2.80
2022-10-10T14:41:06.110Z,2.45
2022-10-10T14:43:12.512Z,2.83
2022-10-10T14:45:20.664Z,2.72
2022-10-10T14:47:27.601Z,2.97
2022-10-10T14:49:33.027Z,2.53
2022-10-10T14:51:38.622Z,2.42
2022-10-10T14:53:44.054Z,3.33
2022-10-10T14:56:10.655Z,2.40
2022-10-10T14:58:19.650Z,2.90
2022-10-10T15:00:29.699Z,2.30
2022-10-10T15:02:42.002Z,2.75
2022-10-10T15:04:49.850Z,2.38
2022-10-10T15:07:12.517Z,2.78
2022-10-10T15:09:40.064Z,2.55
2022-10-10T15:11:44.685Z,2.95
2022-10-10T15:13:49.711Z,2.60
2022-10-10T15:15:57.393Z,2.55
2022-10-10T15:18:03.593Z,3.30
2022-10-10T15:20:12.550Z,2.90
2022-10-10T15:22:17.592Z,2.50
2022-10-10T15:24:22.685Z,2.65
2022-10-10T15:26:27.893Z,2.67
2022-10-10T15:28:33.008Z,2.60
2022-10-10T15:30:42.917Z,3.08
2022-10-10T15:32:50.891Z,2.72
2022-10-10T15:34:56.177Z,3.15
2022-10-10T15:37:01.294Z,3.50
2022-10-10T15:39:06.550Z,2.53
2022-10-10T15:41:13.168Z,3.13
2022-10-10T15:43:18.589Z,3.35
2022-10-10T15:45:51.108Z,3.20
2022-10-10T15:47:52.644Z,3.25
2022-10-10T15:49:57.715Z,3.70
2022-10-10T15:52:02.780Z,3.03
2022-10-10T15:54:08.021Z,3.67
2022-10-10T15:56:16.820Z,3.22
2022-10-10T15:58:21.826Z,3.25
2022-10-10T16:00:26.950Z,3.47
2022-10-10T16:02:32.029Z,3.58
2022-10-10T16:04:39.639Z,3.50
2022-10-10T16:09:27.685Z,3.83
2022-10-10T16:11:36.586Z,3.30
2022-10-10T16:13:43.812Z,3.45
2022-10-10T16:16:02.762Z,3.38
2022-10-10T16:18:08.393Z,2.90
2022-10-10T16:20:16.471Z,3.67
2022-10-10T16:22:21.602Z,4.10
2022-10-10T16:24:26.688Z,3.90
2022-10-10T16:26:36.620Z,2.90
2022-10-10T16:28:42.077Z,3.30
2022-10-10T16:30:47.209Z,3.80
2022-10-10T16:32:52.755Z,4.03
2022-10-10T16:34:57.781Z,4.95
2022-10-10T16:37:05.529Z,4.70
2022-10-10T16:41:42.504Z,3.88
2022-10-10T16:43:46.235Z,3.28
2022-10-10T16:45:51.259Z,3.83
2022-10-10T16:47:56.452Z,3.20
2022-10-10T16:50:01.522Z,3.78
2022-10-10T16:52:09.186Z,3.42
2022-10-10T16:56:22.929Z,3.65
2022-10-10T16:58:28.668Z,3.92
2022-10-10T17:00:33.831Z,4.10
2022-10-10T17:02:42.214Z,4.07
2022-10-10T17:04:47.415Z,4.40
2022-10-10T17:06:52.474Z,4.00
2022-10-10T17:09:02.530Z,4.07
2022-10-10T17:11:08.190Z,4.75
2022-10-10T17:13:13.306Z,4.50
2022-10-10T17:15:18.696Z,4.90
2022-10-10T17:17:23.780Z,4.35
2022-10-10T17:19:28.935Z,4.93
2022-10-10T17:21:34.380Z,4.97
2022-10-10T17:23:39.669Z,4.85
2022-10-10T17:25:49.009Z,4.85
2022-10-10T17:27:54.040Z,5.32
2022-10-10T17:29:59.120Z,5.10
2022-10-10T17:32:06.718Z,5.05
2022-10-10T17:34:12.323Z,5.00
2022-10-10T17:36:20.554Z,5.55
2022-10-10T17:38:39.231Z,5.05
2022-10-10T17:40:57.768Z,5.10
2022-10-10T17:45:12.033Z,5.53
2022-10-10T17:47:17.250Z,6.13
2022-10-10T17:49:22.602Z,6.65
2022-10-10T17:51:27.907Z,6.43
2022-10-10T17:53:34.379Z,5.47
2022-10-10T17:55:47.378Z,6.57
2022-10-10T17:57:52.438Z,7.80
2022-10-10T17:59:57.497Z,8.25
2022-10-10T18:02:02.548Z,7.95
2022-10-10T18:04:08.911Z,5.93
2022-10-10T18:06:17.712Z,7.97
2022-10-10T18:08:22.783Z,8.23
2022-10-10T18:10:27.800Z,7.97
2022-10-10T18:12:35.449Z,7.95
2022-10-10T18:14:40.684Z,6.43
2022-10-10T18:16:45.743Z,6.75
2022-10-10T18:18:53.162Z,6.88
2022-10-10T18:21:04.284Z,7.35
2022-10-10T18:23:09.788Z,7.82
2022-10-10T18:25:14.970Z,7.00
2022-10-10T18:27:20.932Z,7.05
2022-10-10T18:29:28.640Z,5.55
2022-10-10T18:31:36.648Z,6.55
2022-10-10T18:33:42.021Z,5.50
2022-10-10T18:35:47.051Z,4.68
2022-10-10T18:37:52.109Z,4.93
2022-10-10T18:39:57.129Z,5.95
2022-10-10T18:42:02.573Z,6.07
2022-10-10T18:44:10.451Z,5.70
2022-10-10T18:46:22.165Z,6.10
2022-10-10T18:48:27.327Z,6.00
2022-10-10T18:50:33.151Z,5.95
2022-10-10T18:52:38.152Z,6.50
2022-10-10T18:54:43.270Z,6.18
2022-10-10T18:56:49.640Z,5.40
2022-10-10T18:58:57.852Z,5.78
2022-10-10T19:01:04.331Z,5.72
2022-10-10T19:03:13.491Z,7.15
2022-10-10T19:05:18.748Z,6.90
2022-10-10T19:07:23.781Z,8.25
2022-10-10T19:09:29.741Z,7.97
2022-10-10T19:11:39.154Z,7.30
2022-10-10T19:13:44.116Z,6.88
2022-10-10T19:15:51.750Z,6.05
2022-10-10T19:17:56.793Z,7.00
2022-10-10T19:20:05.303Z,6.32
2022-10-10T19:22:10.761Z,6.35
2022-10-10T19:24:20.983Z,6.57
2022-10-10T19:26:26.773Z,6.30
2022-10-10T19:28:32.015Z,6.63
2022-10-10T19:30:40.957Z,6.72
2022-10-10T19:34:52.381Z,6.60
2022-10-10T19:37:00.014Z,6.40
2022-10-10T19:41:12.893Z,5.68
2022-10-10T19:43:20.765Z,6.40
2022-10-10T19:47:30.614Z,5.88
2022-10-10T19:49:36.694Z,6.55
2022-10-10T19:51:41.858Z,6.43
2022-10-10T19:53:50.248Z,5.85
2022-10-10T19:56:03.097Z,6.10
2022-10-10T19:58:09.005Z,7.43
2022-10-10T20:00:16.786Z,28.13
2022-10-10T20:04:26.899Z,6.10
2022-10-10T20:06:32.008Z,7.43
2022-10-10T20:08:37.477Z,8.57
2022-10-10T20:10:46.959Z,8.15
2022-10-10T20:12:51.955Z,7.00
2022-10-10T20:14:57.082Z,6.70
2022-10-10T20:17:02.067Z,6.32
2022-10-10T20:19:07.176Z,6.35
2022-10-10T20:21:17.826Z,6.45
2022-10-10T20:23:27.138Z,7.35
2022-10-10T20:25:32.211Z,6.80
2022-10-10T20:27:40.039Z,6.82
2022-10-10T20:29:45.290Z,7.03
2022-10-10T20:31:50.605Z,7.10
2022-10-10T20:33:58.308Z,7.03
2022-10-10T20:36:06.757Z,8.10
2022-10-10T20:38:12.242Z,7.95
2022-10-10T20:40:17.594Z,8.02
2022-10-10T20:42:22.613Z,7.30
2022-10-10T20:44:30.383Z,7.97
2022-10-10T20:48:42.731Z,8.13
2022-10-10T20:50:48.489Z,8.05
2022-10-10T20:52:53.521Z,7.50
2022-10-10T20:54:58.580Z,7.80
2022-10-10T20:57:03.641Z,7.75
2022-10-10T20:59:10.722Z,7.90
2022-10-10T21:01:21.900Z,7.97
2022-10-10T21:03:26.966Z,7.53
2022-10-10T21:05:32.646Z,7.18
2022-10-10T21:07:37.786Z,8.43
2022-10-10T21:09:43.049Z,7.75
2022-10-10T21:11:50.851Z,8.45
2022-10-10T21:16:03.033Z,7.27
2022-10-10T21:18:11.002Z,7.72
2022-10-10T21:20:16.204Z,8.23
2022-10-10T21:22:21.236Z,8.20
2022-10-10T21:24:26.267Z,8.00
2022-10-10T21:26:33.118Z,8.13
2022-10-10T21:28:39.285Z,7.53
2022-10-10T21:30:50.873Z,7.95
2022-10-10T21:32:55.922Z,7.97
2022-10-10T21:35:03.532Z,8.98
2022-10-10T21:37:08.548Z,8.27
2022-10-10T21:39:14.333Z,7.88
2022-10-10T21:41:22.576Z,8.85
2022-10-10T21:43:27.555Z,7.70
2022-10-10T21:45:33.014Z,8.25
2022-10-10T21:47:38.110Z,7.55
2022-10-10T21:49:43.358Z,7.95
2022-10-10T21:51:50.951Z,8.40
2022-10-10T21:53:59.218Z,7.65
2022-10-10T21:56:08.617Z,7.43
2022-10-10T21:58:14.960Z,7.68
2022-10-10T22:00:21.981Z,7.25
2022-10-10T22:02:27.387Z,7.32
2022-10-10T22:04:32.393Z,7.90
2022-10-10T22:06:38.371Z,7.22
2022-10-10T22:08:47.433Z,7.43
2022-10-10T22:10:52.558Z,8.00
2022-10-10T22:12:58.652Z,7.20
2022-10-10T22:15:03.849Z,7.85
2022-10-10T22:17:09.230Z,8.38
2022-10-10T22:19:17.933Z,7.20
2022-10-10T22:21:25.659Z,7.25
2022-10-10T22:23:34.907Z,7.47
2022-10-10T22:25:47.421Z,7.28
2022-10-10T22:27:56.983Z,8.02
2022-10-10T22:30:02.934Z,7.50
2022-10-10T22:32:08.272Z,8.00
2022-10-10T22:34:14.697Z,7.57
2022-10-10T22:36:19.750Z,8.25
2022-10-10T22:38:25.069Z,7.43
2022-10-10T22:40:30.681Z,7.22
2022-10-10T22:42:39.019Z,8.30
2022-10-10T22:44:44.449Z,8.32
2022-10-10T22:46:50.297Z,8.13
2022-10-10T22:48:55.426Z,8.48
2022-10-10T22:51:05.942Z,8.30
2022-10-10T22:53:11.920Z,7.68
2022-10-10T22:55:18.724Z,8.23
2022-10-10T22:57:24.495Z,8.32
2022-10-10T22:59:32.169Z,8.88
2022-10-10T23:01:38.053Z,7.78
2022-10-10T23:03:43.123Z,8.40
2022-10-10T23:05:49.350Z,7.55
2022-10-10T23:07:54.343Z,7.82
2022-10-10T23:09:59.720Z,7.45
2022-10-10T23:12:04.780Z,7.60
2022-10-10T23:14:10.223Z,7.50
2022-10-10T23:16:17.819Z,7.90
2022-10-10T23:18:22.925Z,8.82
2022-10-10T23:20:28.358Z,7.70
2022-10-10T23:22:33.733Z,7.00
2022-10-10T23:24:40.317Z,7.00
2022-10-10T23:26:45.356Z,7.22
2022-10-10T23:28:53.477Z,7.22
2022-10-10T23:31:05.060Z,7.00
2022-10-10T23:33:13.938Z,7.75
2022-10-10T23:35:19.983Z,7.55
2022-10-10T23:37:25.606Z,7.60
2022-10-10T23:39:31.019Z,6.43
2022-10-10T23:41:36.443Z,8.77
2022-10-10T23:43:41.761Z,8.32
2022-10-10T23:45:47.180Z,8.82
2022-10-10T23:47:52.310Z,8.93
2022-10-10T23:49:59.899Z,7.90
2022-10-10T23:52:05.681Z,9.63
2022-10-10T23:54:10.761Z,7.90
2022-10-10T23:56:16.148Z,8.82
2022-10-10T23:58:21.208Z,9.20
